This is the latest recevied weather packets stored in our database for station/object DB0WT-13. If no packets are shown the sender has not sent any weather packets the latest 1 day(s).
| Time | Temp. | Humidity | Pressure | Rain* | Wind** | Luminosity | Snow |
|---|---|---|---|---|---|---|---|
| 1778088613 | 8.33° C | 99% | 1014.8 hPa | - | - | - | - |
| 1778077812 | 9.44° C | 99% | 1014.1 hPa | - | - | - | - |
| 1778076913 | 9.44° C | 99% | 1013.7 hPa | - | - | - | - |
| 1778073312 | 11.11° C | 99% | 1011.7 hPa | - | - | - | - |
| 1778068813 | 14.44° C | 99% | 1007.6 hPa | - | - | - | - |
| 1778061613 | 12.22° C | 99% | 1010 hPa | - | - | - | - |
| 1778058912 | 12.22° C | 99% | 1010.3 hPa | - | - | - | - |
| 1778056212 | 12.78° C | 99% | 1009.2 hPa | - | - | - | - |
| 1778055312 | 14.44° C | 99% | 1007.8 hPa | - | - | - | - |
| 1778051712 | 18.89° C | 99% | 1007.3 hPa | - | - | - | - |
| 1778049912 | 10.56° C | 99% | 1019.6 hPa | - | - | - | - |
| 1778046312 | 7.78° C | 99% | 1023.8 hPa | - | - | - | - |
| 1778045412 | 7.22° C | 99% | 1023.9 hPa | - | - | - | - |
| 1778044512 | 6.67° C | 99% | 1023.7 hPa | - | - | - | - |
| 1778042712 | 6.11° C | 99% | 1023 hPa | - | - | - | - |
| 1778040912 | 6.11° C | 99% | 1023.5 hPa | - | - | - | - |
| 1778040012 | 6.11° C | 99% | 1023.8 hPa | - | - | - | - |
| 1778039111 | 6.67° C | 99% | 1024 hPa | - | - | - | - |
| 1778038212 | 6.67° C | 99% | 1024.1 hPa | - | - | - | - |
| 1778037312 | 6.67° C | 99% | 1024.1 hPa | - | - | - | - |
| 1778036412 | 7.22° C | 99% | 1023.9 hPa | - | - | - | - |
| 1778035512 | 7.22° C | 99% | 1024 hPa | - | - | - | - |
| 1778032812 | 7.22° C | 99% | 1023.6 hPa | - | - | - | - |
| 1778030112 | 7.22° C | 99% | 1023.4 hPa | - | - | - | - |
| 1778029213 | 6.67° C | 99% | 1022.9 hPa | - | - | - | - |
* Rain since midnight (hover to see other rain measurements)
** Current wind speed in m/s (hover to see current wind gust speed)